• Join FlightAware (Why Join?)
  • Login
  • US Flag 
06:55AM EDT


 

Airport Tracker/Info


-or-


 

Live Flight TrackerFlight Track Log ✈ N795XJ ✈ 30-Sep-2013 ✈ KOAK - KMRY

Flight Track Log - Related Links

Times and Time Zones

All times are in EDT time to prevent confusion due to time zone crossing. See the N795XJ flight status page for this flight to view local times or setup timezone preferences in your user account.

Time Position Orientation Groundspeed Altitude Reporting Facility
EDT Latitude Longitude Course Direction KTS MPH feet Rate Location/Type
07:22PM 37.7333 -122.2667 141° Southeast 193 222 2,000  Level Northern Cal TRACON
07:23PM 37.7833 -122.3167 322° Northwest 250 288 2,600 1,560 Climbing Northern Cal TRACON
07:24PM 37.8333 -122.4000 307° West 268 308 5,200 3,240 Climbing Northern Cal TRACON
07:25PM 37.8167 -122.4667 252° West 274 315 9,100 2,640 Climbing Northern Cal TRACON
07:26PM 37.7333 -122.5333 212° Southwest 316 364 10,800 900 Climbing Northern Cal TRACON
07:27PM 37.4140 -122.1172 141° Southeast  Level Estimated
07:27PM 37.6500 -122.5833 205° Southwest 382 440 11,000  Level Northern Cal TRACON
07:28PM 37.5331 -122.5656 173° South 387 445 11,000  Level Oakland Center
07:29PM 37.4075 -122.5633 179° South 379 436 11,000  Level Oakland Center
07:30PM 37.3036 -122.5253 164° South 386 444 11,000 -420 Level Oakland Center
07:31PM 37.2139 -122.4908 163° South 344 396 10,200 -1,320 Descending Oakland Center
07:32PM 37.1400 -122.4494 156° South 298 343 8,400 -1,140 Descending Oakland Center
07:33PM 37.0789 -122.3792 137° Southeast 296 341 8,000 -420 Descending Oakland Center
07:34PM 37.0161 -122.3089 138° Southeast 301 346 7,600 -900 Descending Oakland Center
07:35PM 36.9544 -122.2442 140° Southeast 294 338 6,200 -1,320 Descending Oakland Center
07:36PM 36.8961 -122.1819 140° Southeast 285 328 5,000 -1,080 Descending Oakland Center
07:37PM 36.8389 -122.1203 139° Southeast 279 321 4,100 -1,200 Descending Oakland Center
07:38PM 36.7833 -122.0667 142° Southeast 268 308 3,000 -720 Descending Northern Cal TRACON
07:39PM 36.7333 -122.0000 133° Southeast 270 311 3,000  Level Northern Cal TRACON
07:40PM 36.6833 -121.9500 141° Southeast 231 266 3,000  Level Northern Cal TRACON
07:41PM 36.6500 -121.9000 130° Southeast 206 237 3,000 -180 Level Northern Cal TRACON
07:42PM 36.6167 -121.8500 130° Southeast 190 219 2,700 -360 Descending Northern Cal TRACON
07:43PM 36.6000 -121.8000 113° Southeast 157 181 2,300 -1,020 Descending Northern Cal TRACON
07:44PM 36.5833 -121.8167 219° Southwest 147 169 700 -1,620 Descending Northern Cal TRACON